createdAt,value
2018-05-07T00:02:24.551Z,4.57
2018-05-07T00:04:52.058Z,5.10
2018-05-07T00:07:19.611Z,3.97
2018-05-07T00:09:47.163Z,5.10
2018-05-07T00:12:15.531Z,5.17
2018-05-07T00:14:43.830Z,4.53
2018-05-07T00:17:11.827Z,4.20
2018-05-07T00:19:40.126Z,5.00
2018-05-07T00:22:07.705Z,4.43
2018-05-07T00:24:35.282Z,5.17
2018-05-07T00:27:03.585Z,4.40
2018-05-07T00:29:31.133Z,4.97
2018-05-07T00:31:58.670Z,4.80
2018-05-07T00:34:26.946Z,4.87
2018-05-07T00:36:55.230Z,4.47
2018-05-07T00:39:23.571Z,4.90
2018-05-07T00:41:51.105Z,4.70
2018-05-07T00:44:18.619Z,4.10
2018-05-07T00:46:46.942Z,4.37
2018-05-07T00:49:25.295Z,4.15
2018-05-07T00:56:26.827Z,5.20
2018-05-07T00:58:54.350Z,4.63
2018-05-07T01:01:22.626Z,4.90
2018-05-07T01:03:50.175Z,4.40
2018-05-07T01:06:18.999Z,4.90
2018-05-07T01:08:46.515Z,4.90
2018-05-07T01:11:16.379Z,4.80
2018-05-07T01:13:43.902Z,4.83
2018-05-07T01:16:12.187Z,5.00
2018-05-07T01:18:40.174Z,4.50
2018-05-07T01:21:07.691Z,5.87
2018-05-07T01:23:35.990Z,5.30
2018-05-07T01:26:03.534Z,5.45
2018-05-07T01:28:31.038Z,4.70
2018-05-07T01:30:58.556Z,5.10
2018-05-07T01:33:26.859Z,4.83
2018-05-07T01:35:54.361Z,5.17
2018-05-07T01:38:21.884Z,5.33
2018-05-07T01:40:49.742Z,5.13
2018-05-07T01:43:17.254Z,5.13
2018-05-07T01:45:45.543Z,5.00
2018-05-07T01:48:15.358Z,5.70
2018-05-07T01:50:42.870Z,4.80
2018-05-07T01:53:10.377Z,5.47
2018-05-07T01:55:38.679Z,5.30
2018-05-07T01:58:06.476Z,5.53
2018-05-07T02:00:34.175Z,6.23
2018-05-07T02:03:02.176Z,5.17
2018-05-07T02:05:29.702Z,5.90
2018-05-07T02:07:57.989Z,5.67
2018-05-07T02:10:25.547Z,5.30
2018-05-07T02:12:53.058Z,5.60
2018-05-07T02:15:20.581Z,5.62
2018-05-07T02:17:48.138Z,5.60
2018-05-07T02:20:16.426Z,5.70
2018-05-07T02:22:43.953Z,6.03
2018-05-07T02:25:11.954Z,5.57
2018-05-07T02:27:39.462Z,5.60
2018-05-07T02:30:07.011Z,5.47
2018-05-07T02:32:35.338Z,5.73
2018-05-07T02:35:02.854Z,5.63
2018-05-07T02:37:31.143Z,5.60
2018-05-07T02:39:59.451Z,5.90
2018-05-07T02:42:26.979Z,5.00
2018-05-07T02:44:54.495Z,5.80
2018-05-07T02:47:22.326Z,5.72
2018-05-07T02:49:49.838Z,5.70
2018-05-07T02:52:17.358Z,5.43
2018-05-07T02:54:45.669Z,5.60
2018-05-07T02:57:14.631Z,5.72
2018-05-07T02:59:42.430Z,5.10
2018-05-07T03:02:10.754Z,6.33
2018-05-07T03:04:38.266Z,6.23
2018-05-07T03:07:05.779Z,5.60
2018-05-07T03:09:33.347Z,4.93
2018-05-07T03:12:00.898Z,5.30
2018-05-07T03:14:28.388Z,6.00
2018-05-07T03:16:55.946Z,5.63
2018-05-07T03:19:23.472Z,5.97
2018-05-07T03:21:50.989Z,5.53
2018-05-07T03:24:18.518Z,5.72
2018-05-07T03:26:46.054Z,6.20
2018-05-07T03:29:15.414Z,5.65
2018-05-07T03:31:43.142Z,6.23
2018-05-07T03:34:10.658Z,6.10
2018-05-07T03:36:38.231Z,6.03
2018-05-07T03:39:05.778Z,6.17
2018-05-07T03:41:33.286Z,6.37
2018-05-07T03:44:00.811Z,5.33
2018-05-07T03:46:29.122Z,6.57
2018-05-07T03:48:57.410Z,6.13
2018-05-07T03:51:25.694Z,6.33
2018-05-07T03:53:55.953Z,6.43
2018-05-07T03:56:23.471Z,7.50
2018-05-07T03:58:51.754Z,7.20
2018-05-07T04:01:20.357Z,6.60
2018-05-07T04:03:47.890Z,6.53
2018-05-07T04:06:16.377Z,7.43
2018-05-07T04:08:43.934Z,6.60
2018-05-07T04:11:11.459Z,6.95
2018-05-07T04:13:38.971Z,7.37
2018-05-07T04:16:07.554Z,7.22
2018-05-07T04:21:34.728Z,7.37
2018-05-07T04:24:04.898Z,7.63
2018-05-07T04:26:32.434Z,7.37
2018-05-07T04:28:59.974Z,7.90
2018-05-07T04:31:27.498Z,8.35
2018-05-07T04:33:55.023Z,8.40
2018-05-07T04:36:22.844Z,7.70
2018-05-07T04:38:50.378Z,8.00
2018-05-07T04:41:17.899Z,8.27
2018-05-07T04:43:45.462Z,8.20
2018-05-07T04:46:15.487Z,7.85
2018-05-07T04:48:43.827Z,8.03
2018-05-07T04:51:12.111Z,7.43
2018-05-07T04:53:39.648Z,6.97
2018-05-07T04:56:07.160Z,7.00
2018-05-07T04:58:35.775Z,7.10
2018-05-07T05:01:03.294Z,6.57
2018-05-07T05:03:32.544Z,8.00
2018-05-07T05:06:00.076Z,7.47
2018-05-07T05:08:28.367Z,7.33
2018-05-07T05:10:55.905Z,7.90
2018-05-07T05:13:24.231Z,6.77
2018-05-07T05:15:51.757Z,7.97
2018-05-07T05:18:19.283Z,7.93
2018-05-07T05:20:49.759Z,7.50
2018-05-07T05:23:17.274Z,8.33
2018-05-07T05:25:45.618Z,7.33
2018-05-07T05:28:15.414Z,7.50
2018-05-07T05:30:42.939Z,8.20
2018-05-07T05:33:10.480Z,7.15
2018-05-07T05:35:38.182Z,8.00
2018-05-07T05:38:05.727Z,7.33
2018-05-07T05:40:33.277Z,9.38
2018-05-07T05:43:01.178Z,7.93
2018-05-07T05:45:28.707Z,6.77
2018-05-07T05:47:56.235Z,7.10
2018-05-07T05:50:23.778Z,6.70
2018-05-07T05:52:51.339Z,7.07
2018-05-07T05:55:19.194Z,6.40
2018-05-07T05:57:46.730Z,6.27
2018-05-07T06:00:25.736Z,6.82
2018-05-07T06:07:22.226Z,5.67
2018-05-07T06:09:49.740Z,5.70
2018-05-07T06:12:18.035Z,5.93
2018-05-07T06:14:45.725Z,5.50
2018-05-07T06:17:13.727Z,5.68
2018-05-07T06:19:42.043Z,5.60
2018-05-07T06:22:09.598Z,5.10
2018-05-07T06:24:37.118Z,6.03
2018-05-07T06:27:04.634Z,4.83
2018-05-07T06:29:32.602Z,5.43
2018-05-07T06:32:00.116Z,5.47
2018-05-07T06:34:28.418Z,5.30
2018-05-07T06:36:55.986Z,5.37
2018-05-07T06:39:23.521Z,4.57
2018-05-07T06:41:51.831Z,4.90
2018-05-07T06:44:19.457Z,4.97
2018-05-07T06:46:47.743Z,4.17
2018-05-07T06:49:15.543Z,4.30
2018-05-07T06:51:43.396Z,4.63
2018-05-07T06:54:10.915Z,4.40
2018-05-07T06:56:38.448Z,4.23
2018-05-07T06:59:06.016Z,5.27
2018-05-07T07:01:33.540Z,4.70
2018-05-07T07:04:01.430Z,4.30
2018-05-07T07:06:28.976Z,4.70
2018-05-07T07:08:57.332Z,4.43
2018-05-07T07:11:24.871Z,4.90
2018-05-07T07:13:52.862Z,6.00
2018-05-07T07:16:20.407Z,3.70
2018-05-07T07:18:47.923Z,4.07
2018-05-07T07:21:16.391Z,4.75
2018-05-07T07:23:43.911Z,4.53
2018-05-07T07:26:11.440Z,3.75
2018-05-07T07:28:39.760Z,4.13
2018-05-07T07:31:07.270Z,3.87
2018-05-07T07:33:35.561Z,4.53
2018-05-07T07:36:03.335Z,3.80
2018-05-07T07:38:30.886Z,4.43
2018-05-07T07:40:58.454Z,3.97
2018-05-07T07:43:26.034Z,3.80
2018-05-07T07:45:53.555Z,3.87
2018-05-07T07:48:21.834Z,3.87
2018-05-07T07:50:49.398Z,3.50
2018-05-07T07:53:17.678Z,4.00
2018-05-07T07:55:45.205Z,3.70
2018-05-07T07:58:14.923Z,3.40
2018-05-07T08:00:43.207Z,3.90
2018-05-07T08:03:10.732Z,3.40
2018-05-07T08:05:39.723Z,3.90
2018-05-07T08:08:07.235Z,3.43
2018-05-07T08:10:35.019Z,3.13
2018-05-07T08:13:02.566Z,3.33
2018-05-07T08:15:30.096Z,3.20
2018-05-07T08:17:57.608Z,3.53
2018-05-07T08:20:25.459Z,3.33
2018-05-07T08:22:52.971Z,3.40
2018-05-07T08:25:21.256Z,3.30
2018-05-07T08:27:49.565Z,3.40
2018-05-07T08:30:23.044Z,3.17
2018-05-07T08:32:50.736Z,2.97
2018-05-07T08:35:18.362Z,2.90
2018-05-07T08:37:45.907Z,3.60
2018-05-07T08:40:25.394Z,3.30
2018-05-07T08:45:18.818Z,3.10
2018-05-07T08:47:47.132Z,3.40
2018-05-07T08:50:16.639Z,3.67
2018-05-07T08:52:44.167Z,2.93
2018-05-07T08:55:12.483Z,3.37
2018-05-07T08:57:40.000Z,3.50
2018-05-07T09:00:07.506Z,2.80
2018-05-07T09:02:35.099Z,3.13
2018-05-07T09:05:02.618Z,3.00
2018-05-07T09:07:30.217Z,3.50
2018-05-07T09:09:58.212Z,3.50
2018-05-07T09:12:26.251Z,2.87
2018-05-07T09:14:53.766Z,3.40
2018-05-07T09:17:21.315Z,3.67
2018-05-07T09:19:48.844Z,3.00
2018-05-07T09:22:16.382Z,3.13
2018-05-07T09:24:43.984Z,3.00
2018-05-07T09:27:11.660Z,3.20
2018-05-07T09:29:39.179Z,3.20
2018-05-07T09:32:07.517Z,2.77
2018-05-07T09:34:35.026Z,3.13
2018-05-07T09:37:03.370Z,3.30
2018-05-07T09:39:30.892Z,3.15
2018-05-07T09:41:58.411Z,2.90
2018-05-07T09:44:25.934Z,3.07
2018-05-07T09:46:53.507Z,2.63
2018-05-07T09:49:21.030Z,3.70
2018-05-07T09:51:48.577Z,3.00
2018-05-07T09:54:17.255Z,3.40
2018-05-07T09:56:54.540Z,2.90
2018-05-07T09:59:22.826Z,3.65
2018-05-07T10:01:50.354Z,3.43
2018-05-07T10:04:18.611Z,3.87
2018-05-07T10:06:46.322Z,3.53
2018-05-07T10:09:26.317Z,3.33
2018-05-07T10:14:24.235Z,3.40
2018-05-07T10:16:52.507Z,3.33
2018-05-07T10:19:20.797Z,3.87
2018-05-07T10:21:48.395Z,3.30
2018-05-07T10:24:16.393Z,3.20
2018-05-07T10:26:44.677Z,3.47
2018-05-07T10:29:13.911Z,3.20
2018-05-07T10:31:41.418Z,3.17
2018-05-07T10:34:08.939Z,3.07
2018-05-07T10:36:36.475Z,4.07
2018-05-07T10:39:03.991Z,3.20
2018-05-07T10:41:31.514Z,3.75
2018-05-07T10:43:59.229Z,3.30
2018-05-07T10:46:26.744Z,4.20
2018-05-07T10:48:54.268Z,3.97
2018-05-07T10:51:21.812Z,4.13
2018-05-07T10:53:50.106Z,4.03
2018-05-07T10:56:17.700Z,4.23
2018-05-07T10:58:45.954Z,3.47
2018-05-07T11:01:15.327Z,3.62
2018-05-07T11:03:42.868Z,3.10
2018-05-07T11:06:11.504Z,3.60
2018-05-07T11:08:39.047Z,3.73
2018-05-07T11:11:06.591Z,2.50
2018-05-07T11:13:34.200Z,3.23
2018-05-07T11:16:02.391Z,3.23
2018-05-07T11:18:29.904Z,2.90
2018-05-07T11:20:57.451Z,4.67
2018-05-07T11:23:24.962Z,3.43
2018-05-07T11:25:52.501Z,3.83
2018-05-07T11:28:20.116Z,3.40
2018-05-07T11:30:47.643Z,2.90
2018-05-07T11:33:16.395Z,3.42
2018-05-07T11:35:43.943Z,3.40
2018-05-07T11:38:11.729Z,3.67
2018-05-07T11:40:39.250Z,3.57
2018-05-07T11:43:06.829Z,3.27
2018-05-07T11:45:34.348Z,3.13
2018-05-07T11:48:02.647Z,3.27
2018-05-07T11:50:30.395Z,3.20
2018-05-07T11:52:57.936Z,3.17
2018-05-07T11:55:26.237Z,2.85
2018-05-07T11:57:53.783Z,3.13
2018-05-07T12:00:22.067Z,3.70
2018-05-07T12:02:49.648Z,3.40
2018-05-07T12:05:17.941Z,3.40
2018-05-07T12:07:45.467Z,3.35
2018-05-07T12:10:15.369Z,3.62
2018-05-07T12:12:43.690Z,3.23
2018-05-07T12:15:11.249Z,3.27
2018-05-07T12:17:39.575Z,3.27
2018-05-07T12:20:07.130Z,3.20
2018-05-07T12:22:35.407Z,3.10
2018-05-07T12:25:03.690Z,2.90
2018-05-07T12:27:32.002Z,3.50
2018-05-07T12:29:59.664Z,3.23
2018-05-07T12:32:27.199Z,3.40
2018-05-07T12:34:54.770Z,3.63
2018-05-07T12:37:22.425Z,4.13
2018-05-07T12:39:50.711Z,3.27
2018-05-07T12:42:18.274Z,4.83
2018-05-07T12:44:45.819Z,3.53
2018-05-07T12:47:26.020Z,3.42
2018-05-07T12:52:25.074Z,3.13
2018-05-07T12:54:54.665Z,3.63
2018-05-07T12:57:22.964Z,3.30
2018-05-07T12:59:50.471Z,3.45
2018-05-07T13:02:18.160Z,3.70
2018-05-07T13:04:45.721Z,3.40
2018-05-07T13:07:25.163Z,3.45
2018-05-07T13:12:38.583Z,4.10
2018-05-07T13:15:06.123Z,3.60
2018-05-07T13:17:33.644Z,3.22
2018-05-07T13:20:01.963Z,3.67
2018-05-07T13:22:29.482Z,3.20
2018-05-07T13:24:57.094Z,3.13
2018-05-07T13:27:24.597Z,3.50
2018-05-07T13:29:52.127Z,3.33
2018-05-07T13:32:19.991Z,3.92
2018-05-07T13:34:47.677Z,3.23
2018-05-07T13:37:16.399Z,3.37
2018-05-07T13:39:43.917Z,3.30
2018-05-07T13:42:11.519Z,6.07
2018-05-07T13:44:39.047Z,4.10
2018-05-07T13:47:06.572Z,3.30
2018-05-07T13:49:34.108Z,3.77
2018-05-07T13:52:01.634Z,3.40
2018-05-07T13:54:29.174Z,3.53
2018-05-07T13:56:57.012Z,3.27
2018-05-07T13:59:24.530Z,3.90
2018-05-07T14:01:52.120Z,3.13
2018-05-07T14:04:19.724Z,3.28
2018-05-07T14:06:47.372Z,3.20
2018-05-07T14:09:16.256Z,3.92
2018-05-07T14:11:44.592Z,3.67
2018-05-07T14:14:12.104Z,3.50
2018-05-07T14:16:39.711Z,3.43
2018-05-07T14:19:08.277Z,3.60
2018-05-07T14:21:36.167Z,4.10
2018-05-07T14:24:03.713Z,3.00
2018-05-07T14:26:31.271Z,3.72
2018-05-07T14:28:58.815Z,3.47
2018-05-07T14:31:26.338Z,4.00
2018-05-07T14:33:53.882Z,3.80
2018-05-07T14:36:22.178Z,3.10
2018-05-07T14:38:50.543Z,3.50
2018-05-07T14:41:18.067Z,3.63
2018-05-07T14:43:45.583Z,3.40
2018-05-07T14:46:23.808Z,3.35
2018-05-07T14:53:22.422Z,3.60
2018-05-07T14:55:49.989Z,3.50
2018-05-07T14:58:17.466Z,3.92
2018-05-07T15:00:45.866Z,4.20
2018-05-07T15:03:14.704Z,3.70
2018-05-07T15:05:42.218Z,3.47
2018-05-07T15:08:10.544Z,4.33
2018-05-07T15:10:38.070Z,3.73
2018-05-07T15:13:05.587Z,3.97
2018-05-07T15:15:33.250Z,3.62
2018-05-07T15:18:00.736Z,3.70
2018-05-07T15:20:29.024Z,3.53
2018-05-07T15:22:58.276Z,3.60
2018-05-07T15:25:25.795Z,3.73
2018-05-07T15:27:53.315Z,3.23
2018-05-07T15:30:20.859Z,3.43
2018-05-07T15:32:48.381Z,3.97
2018-05-07T15:35:16.482Z,4.55
2018-05-07T15:37:44.028Z,3.80
2018-05-07T15:40:11.556Z,3.67
2018-05-07T15:42:39.090Z,3.50
2018-05-07T15:45:06.702Z,3.60
2018-05-07T15:47:34.222Z,3.27
2018-05-07T15:50:02.499Z,3.57
2018-05-07T15:52:30.043Z,3.90
2018-05-07T15:54:58.406Z,3.40
2018-05-07T15:57:26.703Z,3.80
2018-05-07T15:59:54.370Z,4.70
2018-05-07T16:02:21.994Z,3.17
2018-05-07T16:04:49.518Z,3.60
2018-05-07T16:07:17.093Z,4.00
2018-05-07T16:09:44.631Z,3.83
2018-05-07T16:12:12.158Z,3.80
2018-05-07T16:14:40.613Z,4.00
2018-05-07T16:17:08.150Z,3.27
2018-05-07T16:19:35.748Z,4.10
2018-05-07T16:22:04.181Z,4.00
2018-05-07T16:24:32.408Z,3.47
2018-05-07T16:26:59.927Z,3.70
2018-05-07T16:29:28.518Z,3.40
2018-05-07T16:31:56.056Z,3.93
2018-05-07T16:34:23.564Z,4.33
2018-05-07T16:36:51.878Z,4.07
2018-05-07T16:39:19.383Z,3.60
2018-05-07T16:41:46.895Z,4.50
2018-05-07T16:44:16.291Z,3.40
2018-05-07T16:46:43.817Z,4.23
2018-05-07T16:49:12.095Z,3.57
2018-05-07T16:51:40.435Z,3.87
2018-05-07T16:54:07.957Z,4.47
2018-05-07T16:56:36.319Z,3.75
2018-05-07T16:59:03.896Z,4.27
2018-05-07T17:01:31.433Z,3.97
2018-05-07T17:03:58.960Z,3.80
2018-05-07T17:06:26.524Z,4.17
2018-05-07T17:08:54.051Z,4.00
2018-05-07T17:11:21.569Z,4.32
2018-05-07T17:13:49.892Z,4.20
2018-05-07T17:16:17.563Z,4.57
2018-05-07T17:18:45.249Z,5.30
2018-05-07T17:21:12.663Z,4.00
2018-05-07T17:23:40.190Z,4.77
2018-05-07T17:26:08.048Z,4.23
2018-05-07T17:28:35.595Z,5.37
2018-05-07T17:31:03.875Z,5.10
2018-05-07T17:33:32.234Z,4.67
2018-05-07T17:35:59.761Z,3.93
2018-05-07T17:38:27.275Z,4.20
2018-05-07T17:40:55.565Z,4.40
2018-05-07T17:43:23.144Z,5.12
2018-05-07T17:46:02.539Z,4.57
2018-05-07T17:48:42.646Z,4.67
2018-05-07T17:51:10.163Z,4.30
2018-05-07T17:53:38.439Z,4.00
2018-05-07T17:56:06.021Z,4.80
2018-05-07T17:58:33.555Z,4.00
2018-05-07T18:01:01.247Z,5.00
2018-05-07T18:03:28.649Z,5.63
2018-05-07T18:05:56.987Z,4.20
2018-05-07T18:08:24.502Z,4.25
2018-05-07T18:10:52.082Z,4.23
2018-05-07T18:13:19.911Z,5.78
2018-05-07T18:15:48.237Z,4.43
2018-05-07T18:18:16.481Z,4.80
2018-05-07T18:20:43.996Z,4.20
2018-05-07T18:23:12.287Z,4.82
2018-05-07T18:25:45.503Z,4.13
2018-05-07T18:28:25.139Z,4.55
2018-05-07T18:33:48.975Z,5.00
2018-05-07T18:36:16.529Z,5.28
2018-05-07T18:38:44.052Z,4.53
2018-05-07T18:41:11.943Z,4.63
2018-05-07T18:43:39.471Z,4.37
2018-05-07T18:46:07.760Z,4.60
2018-05-07T18:48:35.348Z,4.43
2018-05-07T18:51:02.866Z,4.53
2018-05-07T18:53:31.978Z,5.30
2018-05-07T18:55:59.695Z,5.37
2018-05-07T18:58:27.211Z,7.30
2018-05-07T19:00:54.751Z,6.80
2018-05-07T19:03:23.066Z,5.70
2018-05-07T19:05:50.599Z,5.70
2018-05-07T19:08:18.139Z,6.30
2018-05-07T19:10:46.481Z,6.20
2018-05-07T19:13:25.375Z,7.85
2018-05-07T19:15:53.040Z,8.00
2018-05-07T19:18:20.572Z,9.25
2018-05-07T19:20:48.159Z,8.80
2018-05-07T19:23:16.524Z,8.67
2018-05-07T19:25:44.107Z,7.20
2018-05-07T19:28:11.642Z,7.60
2018-05-07T19:30:40.012Z,7.90
2018-05-07T19:33:07.749Z,6.70
2018-05-07T19:35:35.299Z,6.93
2018-05-07T19:38:03.230Z,6.37
2018-05-07T19:40:30.757Z,6.70
2018-05-07T19:42:58.394Z,6.30
2018-05-07T19:45:26.716Z,6.90
2018-05-07T19:47:54.305Z,6.33
2018-05-07T19:50:21.826Z,6.47
2018-05-07T19:52:49.529Z,7.10
2018-05-07T19:55:17.070Z,7.47
2018-05-07T19:57:44.582Z,7.33
2018-05-07T20:00:13.847Z,6.68
2018-05-07T20:02:41.371Z,6.40
2018-05-07T20:05:08.883Z,6.90
2018-05-07T20:07:37.223Z,7.55
2018-05-07T20:10:04.802Z,7.77
2018-05-07T20:12:33.160Z,6.93
2018-05-07T20:15:00.809Z,7.43
2018-05-07T20:17:28.392Z,6.30
2018-05-07T20:19:55.980Z,7.27
2018-05-07T20:22:24.096Z,7.00
2018-05-07T20:24:51.659Z,6.80
2018-05-07T20:27:19.179Z,6.73
2018-05-07T20:29:47.540Z,6.60
2018-05-07T20:32:17.112Z,7.63
2018-05-07T20:34:44.630Z,7.00
2018-05-07T20:37:13.871Z,8.80
2018-05-07T20:39:42.186Z,8.90
2018-05-07T20:42:10.653Z,8.90
2018-05-07T20:44:39.015Z,8.10
2018-05-07T20:47:06.551Z,9.20
2018-05-07T20:49:34.615Z,11.00
2018-05-07T20:52:02.186Z,8.23
2018-05-07T20:54:29.691Z,9.03
2018-05-07T20:56:57.981Z,9.40
2018-05-07T20:59:26.440Z,8.80
2018-05-07T21:01:53.865Z,10.70
2018-05-07T21:04:21.401Z,10.13
2018-05-07T21:06:49.583Z,8.50
2018-05-07T21:09:17.094Z,8.13
2018-05-07T21:11:45.463Z,9.00
2018-05-07T21:14:15.419Z,8.85
2018-05-07T21:16:42.937Z,10.80
2018-05-07T21:19:10.454Z,10.10
2018-05-07T21:21:38.207Z,10.50
2018-05-07T21:24:05.730Z,12.23
2018-05-07T21:26:34.027Z,8.03
2018-05-07T21:29:01.643Z,11.43
2018-05-07T21:31:29.170Z,10.43
2018-05-07T21:33:56.696Z,9.30
2018-05-07T21:36:24.243Z,8.90
2018-05-07T21:38:52.518Z,8.73
2018-05-07T21:41:20.811Z,8.30
2018-05-07T21:43:48.363Z,8.10
2018-05-07T21:46:16.483Z,8.57
2018-05-07T21:48:44.003Z,8.97
2018-05-07T21:51:11.854Z,8.23
2018-05-07T21:53:40.134Z,8.10
2018-05-07T21:56:08.407Z,7.80
2018-05-07T21:58:36.728Z,7.40
2018-05-07T22:01:04.251Z,8.97
2018-05-07T22:03:31.768Z,8.87
2018-05-07T22:05:59.307Z,8.60
2018-05-07T22:08:26.822Z,8.63
2018-05-07T22:13:28.722Z,7.40
2018-05-07T22:15:56.235Z,8.27
2018-05-07T22:18:24.522Z,7.80
2018-05-07T22:20:52.842Z,7.40
2018-05-07T22:23:20.354Z,7.15
2018-05-07T22:25:47.879Z,7.00
2018-05-07T22:28:15.555Z,7.07
2018-05-07T22:30:43.170Z,6.87
2018-05-07T22:33:10.699Z,6.33
2018-05-07T22:35:40.334Z,6.73
2018-05-07T22:38:07.858Z,7.10
2018-05-07T22:40:36.218Z,6.53
2018-05-07T22:43:03.797Z,7.13
2018-05-07T22:45:32.075Z,6.97
2018-05-07T22:48:00.354Z,6.23
2018-05-07T22:50:28.651Z,6.20
2018-05-07T22:52:56.166Z,6.63
2018-05-07T22:55:23.674Z,6.80
2018-05-07T22:57:51.745Z,6.67
2018-05-07T23:00:19.252Z,6.77
2018-05-07T23:02:48.555Z,7.20
2018-05-07T23:05:17.311Z,6.90
2018-05-07T23:07:44.825Z,6.90
2018-05-07T23:10:12.326Z,6.30
2018-05-07T23:12:39.862Z,6.77
2018-05-07T23:15:07.394Z,6.80
2018-05-07T23:17:34.902Z,6.80
2018-05-07T23:20:02.899Z,6.87
2018-05-07T23:22:30.558Z,6.30
2018-05-07T23:24:58.234Z,6.33
2018-05-07T23:27:25.783Z,7.05
2018-05-07T23:29:53.308Z,7.40
2018-05-07T23:32:20.820Z,8.20
2018-05-07T23:34:49.137Z,8.37
2018-05-07T23:37:17.094Z,8.37
2018-05-07T23:39:44.619Z,8.90
2018-05-07T23:42:12.514Z,8.50
2018-05-07T23:44:40.022Z,8.37
2018-05-07T23:47:07.551Z,8.93
2018-05-07T23:49:35.095Z,8.33
2018-05-07T23:52:02.635Z,8.30
2018-05-07T23:54:30.157Z,8.48
2018-05-07T23:56:57.715Z,8.30
2018-05-07T23:59:25.272Z,7.87
